Time;durP1;ratioP1;P1;durP2;ratioP2;P2;SDS_P1;SDS_P2;PMS_P1;PMS_P2;Temp;Humidity;BMP_temperature;BMP_pressure;BME280_temperature;BME280_humidity;BME280_pressure;Samples;Min_cycle;Max_cycle;Signal;HPM_P1;HPM_P2
2022/03/06 00:04:24;;;;;;;10.35;3.65;;;3.70;51.40;;;;;;10002184;28;20057;-70
2022/03/06 00:09:15;;;;;;;10.32;4.03;;;3.70;51.50;;;;;;10007316;28;20523;-70
2022/03/06 00:14:06;;;;;;;10.90;4.65;;;3.60;51.90;;;;;;10018377;28;20073;-73
2022/03/06 00:18:57;;;;;;;10.15;4.32;;;3.70;51.50;;;;;;10006398;28;20030;-73
2022/03/06 00:23:48;;;;;;;9.57;4.50;;;3.60;51.50;;;;;;10009281;28;20405;-72
2022/03/06 00:28:38;;;;;;;11.40;4.60;;;3.50;51.80;;;;;;10006477;28;20038;-72
2022/03/06 00:33:29;;;;;;;7.60;3.58;;;3.60;51.40;;;;;;10011915;28;20092;-74
2022/03/06 00:38:20;;;;;;;9.88;4.45;;;3.40;52.10;;;;;;10014271;28;20029;-74
2022/03/06 00:43:11;;;;;;;8.90;3.65;;;3.40;52.50;;;;;;10013175;28;20109;-73
2022/03/06 00:48:02;;;;;;;9.38;4.43;;;3.40;52.20;;;;;;10013798;28;20117;-69
2022/03/06 00:52:53;;;;;;;9.05;3.95;;;3.30;52.40;;;;;;10015958;28;20029;-68
2022/03/06 00:57:44;;;;;;;10.82;3.95;;;3.20;52.60;;;;;;10014202;28;20564;-70
2022/03/06 01:02:35;;;;;;;8.50;3.88;;;3.10;52.90;;;;;;10015275;28;20192;-70
2022/03/06 01:07:25;;;;;;;8.60;3.83;;;3.10;53.00;;;;;;10010253;28;20404;-70
2022/03/06 01:12:16;;;;;;;9.07;3.63;;;2.90;53.40;;;;;;10016325;28;20045;-69
2022/03/06 01:17:07;;;;;;;9.55;3.83;;;2.90;53.50;;;;;;10009442;28;20124;-69
2022/03/06 01:21:58;;;;;;;8.88;3.83;;;3.00;53.50;;;;;;10016559;28;20256;-69
2022/03/06 01:26:49;;;;;;;8.90;3.47;;;2.90;53.40;;;;;;10013099;28;20038;-69
2022/03/06 01:31:40;;;;;;;11.02;3.50;;;2.80;53.80;;;;;;10017296;28;20079;-69
2022/03/06 01:36:31;;;;;;;8.20;3.22;;;2.80;54.30;;;;;;10017906;28;20157;-70
2022/03/06 01:41:21;;;;;;;6.78;3.70;;;2.70;54.50;;;;;;10009547;28;20374;-70
2022/03/06 01:46:13;;;;;;;11.00;4.22;;;2.70;54.60;;;;;;10004319;28;20141;-67
2022/03/06 01:51:04;;;;;;;8.55;3.70;;;2.50;55.00;;;;;;10011798;28;20058;-66
2022/03/06 01:55:55;;;;;;;13.70;3.88;;;2.50;55.70;;;;;;9986325;28;20057;-66
2022/03/06 02:00:50;;;;;;;7.20;3.33;;;2.40;56.20;;;;;;10007251;28;20396;-69
2022/03/06 02:05:42;;;;;;;9.70;3.58;;;2.30;56.30;;;;;;9995519;28;20607;-66
2022/03/06 02:10:34;;;;;;;8.18;3.00;;;2.30;56.10;;;;;;10013824;28;20503;-67
2022/03/06 02:15:34;;;;;;;12.30;3.55;;;2.40;56.10;;;;;;10010948;28;20077;-70
2022/03/06 02:20:25;;;;;;;9.43;3.65;;;2.30;55.90;;;;;;10009536;28;20026;-70
2022/03/06 02:25:22;;;;;;;8.10;3.83;;;2.30;55.80;;;;;;10002115;28;20378;-70
2022/03/06 02:30:17;;;;;;;8.30;3.35;;;2.20;56.70;;;;;;10013270;28;20013;-69
2022/03/06 02:35:08;;;;;;;7.80;3.22;;;2.20;56.40;;;;;;10007903;28;20128;-71
2022/03/06 02:40:00;;;;;;;7.65;3.58;;;2.20;56.20;;;;;;10006973;28;20084;-70
2022/03/06 02:44:51;;;;;;;6.90;3.22;;;2.20;56.40;;;;;;10000320;28;20021;-71
2022/03/06 02:49:42;;;;;;;8.45;3.67;;;2.10;56.70;;;;;;10007022;28;20396;-70
2022/03/06 02:54:34;;;;;;;7.72;3.70;;;2.10;57.00;;;;;;10010606;28;20069;-70
2022/03/06 02:59:24;;;;;;;6.53;3.15;;;2.00;57.20;;;;;;10008869;28;20037;-71
2022/03/06 03:04:15;;;;;;;9.05;3.38;;;2.00;57.60;;;;;;10013082;28;20370;-73
2022/03/06 03:09:07;;;;;;;9.23;3.72;;;1.90;57.60;;;;;;10009395;28;20529;-72
2022/03/06 03:14:03;;;;;;;9.07;3.88;;;1.90;57.40;;;;;;10001334;28;20130;-70
2022/03/06 03:18:53;;;;;;;9.05;3.55;;;1.90;57.90;;;;;;10009844;28;20502;-69
2022/03/06 03:23:45;;;;;;;9.48;3.70;;;1.90;58.30;;;;;;10003213;28;20116;-69
2022/03/06 03:28:35;;;;;;;6.93;3.40;;;1.90;58.30;;;;;;10006676;28;20117;-69
2022/03/06 03:33:26;;;;;;;7.82;3.03;;;1.90;58.40;;;;;;10000507;28;20121;-70
2022/03/06 03:38:17;;;;;;;8.60;4.03;;;1.80;58.20;;;;;;10010743;28;20492;-69
2022/03/06 03:43:08;;;;;;;6.28;3.20;;;1.80;57.90;;;;;;10007662;28;20117;-68
2022/03/06 03:47:59;;;;;;;7.85;3.20;;;1.80;58.10;;;;;;10010604;28;20369;-69
2022/03/06 03:52:50;;;;;;;6.93;3.13;;;1.80;58.20;;;;;;10005204;28;20026;-70
2022/03/06 03:57:40;;;;;;;9.75;3.63;;;1.70;59.20;;;;;;10009613;28;20033;-71
2022/03/06 04:02:32;;;;;;;6.22;3.28;;;1.60;59.80;;;;;;10001880;28;20026;-72
2022/03/06 04:07:22;;;;;;;7.63;3.22;;;1.60;59.40;;;;;;9991831;28;20116;-73
2022/03/06 04:12:13;;;;;;;5.50;3.17;;;1.60;60.10;;;;;;10004775;28;20042;-71
2022/03/06 04:17:04;;;;;;;6.40;3.33;;;1.50;60.50;;;;;;9997962;28;20048;-71
2022/03/06 04:21:55;;;;;;;6.00;3.30;;;1.50;60.70;;;;;;10017017;28;20076;-73
2022/03/06 04:26:46;;;;;;;7.90;2.97;;;1.50;60.40;;;;;;10017188;28;20500;-66
2022/03/06 04:31:36;;;;;;;6.63;3.17;;;1.50;60.10;;;;;;10014924;28;20025;-68
2022/03/06 04:36:27;;;;;;;8.52;3.35;;;1.40;61.30;;;;;;10018163;28;20793;-67
2022/03/06 04:41:18;;;;;;;8.00;3.72;;;1.30;61.80;;;;;;10006503;28;20026;-68
2022/03/06 04:46:09;;;;;;;10.02;3.83;;;1.30;61.50;;;;;;10006968;28;20041;-76
2022/03/06 04:51:00;;;;;;;5.78;3.25;;;1.40;61.00;;;;;;10010391;28;20539;-75
2022/03/06 04:55:51;;;;;;;7.53;4.57;;;1.40;61.60;;;;;;10016552;28;20092;-68
2022/03/06 05:00:41;;;;;;;7.72;3.13;;;1.50;61.70;;;;;;10016901;28;20056;-68
2022/03/06 05:05:32;;;;;;;6.47;3.33;;;1.20;62.50;;;;;;10008152;28;20030;-69
2022/03/06 05:10:23;;;;;;;6.82;2.92;;;1.30;62.20;;;;;;10009647;28;20349;-68
2022/03/06 05:15:14;;;;;;;4.47;2.90;;;1.20;62.70;;;;;;10013330;28;20121;-68
2022/03/06 05:20:06;;;;;;;9.30;3.83;;;1.20;62.70;;;;;;10008007;28;20224;-67
2022/03/06 05:24:58;;;;;;;6.63;3.17;;;1.20;63.30;;;;;;10021655;28;20065;-75
2022/03/06 05:29:49;;;;;;;7.43;3.67;;;1.20;63.40;;;;;;10027695;28;20026;-74
2022/03/06 05:34:39;;;;;;;7.68;3.22;;;1.10;63.90;;;;;;10016904;28;20123;-74
2022/03/06 05:39:30;;;;;;;7.20;3.53;;;1.10;63.80;;;;;;10037381;28;20041;-66
2022/03/06 05:44:21;;;;;;;8.95;3.53;;;1.00;63.90;;;;;;10007911;28;20028;-67
2022/03/06 05:49:15;;;;;;;6.60;3.15;;;1.00;64.00;;;;;;10011824;28;20022;-68
2022/03/06 05:54:07;;;;;;;6.55;3.47;;;1.00;63.90;;;;;;10013314;28;20034;-69
2022/03/06 05:58:58;;;;;;;5.30;3.40;;;0.90;64.60;;;;;;10006424;28;20267;-65
2022/03/06 06:04:00;;;;;;;8.27;3.25;;;0.90;65.50;;;;;;10014137;28;20426;-69
2022/03/06 06:08:54;;;;;;;8.40;3.47;;;1.00;64.60;;;;;;10020942;28;20026;-69
2022/03/06 06:13:50;;;;;;;8.85;3.83;;;0.90;65.30;;;;;;10022550;28;20378;-70
2022/03/06 06:18:41;;;;;;;8.82;3.25;;;0.90;65.00;;;;;;10019125;28;20017;-67
2022/03/06 06:23:33;;;;;;;6.03;2.83;;;0.90;65.20;;;;;;10006787;28;20028;-67
2022/03/06 06:28:24;;;;;;;9.10;4.10;;;1.00;65.30;;;;;;9995067;28;20489;-65
2022/03/06 06:33:14;;;;;;;5.60;3.28;;;0.90;65.40;;;;;;10011622;28;20034;-63
2022/03/06 06:38:05;;;;;;;10.52;4.15;;;0.90;65.80;;;;;;10003349;28;20112;-64
2022/03/06 06:42:56;;;;;;;6.22;3.58;;;0.80;66.30;;;;;;10012095;28;20160;-66
2022/03/06 06:47:47;;;;;;;5.63;3.50;;;1.00;66.00;;;;;;10009408;28;20033;-68
2022/03/06 06:52:38;;;;;;;9.50;3.80;;;1.00;66.20;;;;;;10004987;28;20025;-64
2022/03/06 06:57:29;;;;;;;8.73;3.30;;;1.10;65.30;;;;;;10010582;28;20116;-65
2022/03/06 07:02:20;;;;;;;6.82;3.47;;;1.20;64.90;;;;;;10009539;28;20447;-65
2022/03/06 07:07:10;;;;;;;10.65;3.75;;;1.20;65.10;;;;;;10010291;28;20033;-67
2022/03/06 07:12:03;;;;;;;6.65;3.95;;;1.20;66.30;;;;;;10003261;28;20056;-65
2022/03/06 07:16:54;;;;;;;8.73;4.10;;;1.20;66.50;;;;;;10000818;28;20572;-68
2022/03/06 07:21:45;;;;;;;8.13;3.47;;;1.20;65.90;;;;;;10005190;28;20029;-68
2022/03/06 07:26:36;;;;;;;8.95;3.70;;;1.30;65.90;;;;;;10000031;28;20397;-72
2022/03/06 07:31:26;;;;;;;7.65;3.90;;;1.40;65.80;;;;;;10007899;28;20033;-70
2022/03/06 07:36:17;;;;;;;11.85;4.32;;;1.40;66.10;;;;;;10009213;28;20045;-65
2022/03/06 07:41:08;;;;;;;8.55;3.40;;;1.60;65.40;;;;;;10009642;28;20018;-66
2022/03/06 07:45:59;;;;;;;7.40;3.45;;;1.60;66.10;;;;;;10005556;28;20129;-66
2022/03/06 07:50:50;;;;;;;11.30;3.97;;;1.70;66.30;;;;;;10009883;28;20116;-63
2022/03/06 07:55:41;;;;;;;8.25;4.30;;;1.80;66.30;;;;;;10001554;28;20407;-68
2022/03/06 08:00:31;;;;;;;7.72;4.35;;;1.90;66.30;;;;;;10009602;28;20335;-68
2022/03/06 08:05:23;;;;;;;8.80;4.38;;;2.00;65.60;;;;;;9992926;28;20145;-69
2022/03/06 08:10:14;;;;;;;7.18;3.60;;;2.20;65.00;;;;;;9993030;28;20029;-68
2022/03/06 08:15:05;;;;;;;8.50;3.60;;;2.20;65.90;;;;;;10005536;28;20046;-67
2022/03/06 08:19:56;;;;;;;9.40;4.03;;;2.30;65.70;;;;;;10001745;28;20031;-68
2022/03/06 08:24:46;;;;;;;13.25;5.53;;;2.50;65.30;;;;;;9991927;28;20517;-64
2022/03/06 08:29:37;;;;;;;13.30;4.97;;;2.60;65.30;;;;;;10004577;28;20030;-65
2022/03/06 08:34:28;;;;;;;12.05;4.93;;;2.70;65.20;;;;;;10002442;28;20038;-65
2022/03/06 08:39:18;;;;;;;11.93;4.97;;;2.80;65.20;;;;;;9998886;28;20370;-66
2022/03/06 08:44:09;;;;;;;11.35;5.40;;;3.10;64.80;;;;;;10008427;28;20030;-68
2022/03/06 08:49:00;;;;;;;11.18;5.20;;;3.20;64.60;;;;;;10007739;28;20036;-65
2022/03/06 08:53:51;;;;;;;9.77;4.60;;;3.30;64.90;;;;;;10003477;28;20110;-65
2022/03/06 08:58:42;;;;;;;14.32;5.53;;;3.40;65.00;;;;;;10006979;28;20093;-64
2022/03/06 09:03:32;;;;;;;13.75;5.90;;;3.50;65.00;;;;;;10008594;28;20037;-66
2022/03/06 09:08:23;;;;;;;11.35;4.95;;;3.80;64.80;;;;;;10010817;28;20033;-66
2022/03/06 09:13:14;;;;;;;19.45;8.18;;;3.80;65.20;;;;;;10012615;28;20050;-71
2022/03/06 09:18:05;;;;;;;14.20;5.40;;;3.90;65.20;;;;;;10013329;28;20313;-69
2022/03/06 09:22:56;;;;;;;10.73;4.95;;;4.10;64.80;;;;;;10009304;28;20023;-69
2022/03/06 09:27:46;;;;;;;11.23;5.28;;;4.30;64.50;;;;;;10010287;28;20034;-71
2022/03/06 09:32:38;;;;;;;12.15;5.13;;;4.40;64.50;;;;;;10015189;28;20049;-68
2022/03/06 09:37:29;;;;;;;13.35;6.38;;;4.60;64.20;;;;;;10010082;28;20037;-66
2022/03/06 09:42:21;;;;;;;14.48;6.43;;;4.70;64.10;;;;;;10008386;28;20026;-72
2022/03/06 09:47:13;;;;;;;11.07;5.40;;;4.80;64.20;;;;;;10011708;28;20392;-66
2022/03/06 09:52:04;;;;;;;12.85;6.43;;;5.00;63.90;;;;;;10012005;28;20026;-66
2022/03/06 09:56:55;;;;;;;14.13;7.03;;;5.10;63.70;;;;;;10006709;28;20045;-66
2022/03/06 10:01:46;;;;;;;12.02;6.22;;;5.20;63.30;;;;;;10005491;28;20105;-68
2022/03/06 10:06:37;;;;;;;9.85;5.55;;;5.40;63.00;;;;;;10007719;28;20690;-70
2022/03/06 10:11:28;;;;;;;11.63;5.88;;;5.60;62.40;;;;;;9999727;28;20464;-67
2022/03/06 10:16:20;;;;;;;9.00;5.55;;;5.50;62.50;;;;;;9996263;28;20578;-69
2022/03/06 10:21:22;;;;;;;16.25;6.38;;;5.60;62.50;;;;;;10006849;28;20038;-68
2022/03/06 10:26:19;;;;;;;12.00;6.07;;;5.80;62.00;;;;;;10005192;28;20022;-71
2022/03/06 10:31:09;;;;;;;11.32;5.53;;;5.90;61.40;;;;;;10000533;28;20035;-71
2022/03/06 10:36:02;;;;;;;12.43;6.30;;;6.10;60.90;;;;;;10006819;28;20038;-70
2022/03/06 10:41:03;;;;;;;12.85;5.60;;;6.00;60.90;;;;;;10004216;28;20485;-69
2022/03/06 10:46:09;;;;;;;8.65;5.63;;;6.00;60.20;;;;;;10011618;28;20026;-70
2022/03/06 10:51:02;;;;;;;12.00;4.93;;;6.20;60.50;;;;;;10003636;28;20057;-68
2022/03/06 10:55:53;;;;;;;11.40;5.85;;;6.30;60.10;;;;;;10010032;28;20124;-68
2022/03/06 11:00:45;;;;;;;13.07;6.70;;;6.50;59.90;;;;;;10009300;28;20551;-70
2022/03/06 11:05:39;;;;;;;14.23;5.80;;;6.60;59.60;;;;;;10011082;28;20034;-69
2022/03/06 11:10:29;;;;;;;11.18;7.13;;;6.70;59.20;;;;;;10008371;28;20264;-71
2022/03/06 11:15:21;;;;;;;9.00;6.28;;;6.80;58.70;;;;;;10008486;28;20178;-70
2022/03/06 11:20:12;;;;;;;11.23;5.82;;;6.90;59.10;;;;;;10006841;28;20030;-70
2022/03/06 11:25:14;;;;;;;13.75;5.75;;;6.90;59.00;;;;;;9995807;28;20753;-70
2022/03/06 11:30:20;;;;;;;12.35;6.60;;;6.90;58.40;;;;;;9998022;28;20512;-71
2022/03/06 11:35:17;;;;;;;14.65;7.07;;;7.20;57.80;;;;;;10009085;28;20128;-70
2022/03/06 11:40:48;;;;;;;13.77;6.40;;;7.30;57.30;;;;;;9994820;28;20026;-71
2022/03/06 11:46:06;;;;;;;12.68;6.28;;;7.30;56.10;;;;;;10003474;28;20025;-68
2022/03/06 11:51:22;;;;;;;13.65;6.30;;;7.20;56.20;;;;;;10000434;28;20038;-69
2022/03/06 11:56:31;;;;;;;12.18;6.10;;;7.30;55.70;;;;;;9982978;28;20504;-69
2022/03/06 12:01:28;;;;;;;11.32;5.40;;;7.60;54.90;;;;;;10020174;28;20034;-71
2022/03/06 12:06:19;;;;;;;11.23;5.82;;;7.60;55.30;;;;;;10007474;28;20030;-70
2022/03/06 12:11:11;;;;;;;13.38;6.90;;;7.50;55.30;;;;;;10009325;28;20029;-72
2022/03/06 12:16:11;;;;;;;9.45;5.35;;;7.40;54.40;;;;;;10007122;28;20529;-69
2022/03/06 12:21:20;;;;;;;12.18;6.18;;;7.50;54.10;;;;;;10009501;28;20286;-70
2022/03/06 12:26:11;;;;;;;10.85;5.97;;;7.60;53.10;;;;;;10008430;28;20030;-69
2022/03/06 12:31:35;;;;;;;12.20;6.60;;;7.50;53.20;;;;;;10007690;28;20029;-69
2022/03/06 12:36:27;;;;;;;14.50;6.28;;;7.70;52.50;;;;;;10007969;28;20041;-69
2022/03/06 12:41:24;;;;;;;10.07;5.38;;;7.90;52.90;;;;;;10009958;28;20026;-70
2022/03/06 12:46:17;;;;;;;16.10;5.50;;;8.00;51.90;;;;;;10013400;28;20030;-72
2022/03/06 12:51:14;;;;;;;10.23;5.28;;;8.20;51.40;;;;;;10005047;28;20092;-69
2022/03/06 12:56:07;;;;;;;10.57;5.70;;;8.40;51.70;;;;;;10012039;28;20042;-71
2022/03/06 13:01:06;;;;;;;10.02;5.57;;;8.60;50.70;;;;;;10013664;28;20022;-72
2022/03/06 13:06:11;;;;;;;8.93;5.78;;;8.80;50.10;;;;;;10012120;28;20030;-70
2022/03/06 13:11:07;;;;;;;14.25;6.70;;;9.10;49.50;;;;;;10007523;28;20022;-70
2022/03/06 13:15:58;;;;;;;10.57;5.93;;;9.50;50.00;;;;;;10014768;28;20046;-69
2022/03/06 13:20:48;;;;;;;11.73;6.60;;;9.60;48.90;;;;;;10017021;28;20459;-69
2022/03/06 13:25:39;;;;;;;11.52;6.45;;;10.00;50.40;;;;;;10016265;28;20033;-69
2022/03/06 13:30:32;;;;;;;13.75;6.80;;;10.20;50.00;;;;;;10004218;28;20524;-70
2022/03/06 13:35:39;;;;;;;12.13;7.13;;;10.40;50.10;;;;;;10009083;28;20034;-72
2022/03/06 13:40:32;;;;;;;8.77;6.32;;;10.80;49.50;;;;;;10007263;28;20120;-70
2022/03/06 13:45:24;;;;;;;8.43;6.78;;;11.30;51.20;;;;;;10011566;28;20030;-71
2022/03/06 13:50:24;;;;;;;8.18;5.80;;;11.70;49.90;;;;;;9999846;28;20046;-72
2022/03/06 13:55:16;;;;;;;8.90;6.03;;;12.10;48.40;;;;;;10008425;28;20100;-71
2022/03/06 14:00:24;;;;;;;10.43;6.97;;;12.40;47.10;;;;;;10008256;28;20505;-70
2022/03/06 14:05:14;;;;;;;10.40;6.65;;;12.00;42.50;;;;;;10009852;28;20062;-70
2022/03/06 14:10:05;;;;;;;10.48;7.03;;;12.20;45.40;;;;;;10010410;28;20477;-71
2022/03/06 14:14:56;;;;;;;11.65;7.13;;;13.30;44.90;;;;;;10011249;28;20185;-70
2022/03/06 14:20:05;;;;;;;9.65;6.97;;;13.20;43.60;;;;;;10013310;28;20265;-70
2022/03/06 14:24:55;;;;;;;11.20;7.40;;;13.50;43.30;;;;;;10005957;28;20022;-70
2022/03/06 14:29:46;;;;;;;8.98;6.80;;;13.70;41.90;;;;;;10004302;28;20742;-70
2022/03/06 14:34:38;;;;;;;9.43;6.75;;;13.70;40.90;;;;;;10003169;28;20045;-71
2022/03/06 14:39:29;;;;;;;8.82;6.22;;;13.90;40.00;;;;;;10010012;28;20040;-71
2022/03/06 14:44:20;;;;;;;9.27;5.95;;;14.60;38.80;;;;;;10000843;28;20061;-71
2022/03/06 14:49:13;;;;;;;8.80;6.18;;;15.40;37.60;;;;;;10010131;28;20018;-71
2022/03/06 14:54:04;;;;;;;9.07;6.00;;;16.40;36.00;;;;;;10005814;28;20566;-70
2022/03/06 14:58:55;;;;;;;7.63;5.72;;;16.90;34.90;;;;;;9997256;28;20036;-71
2022/03/06 15:03:45;;;;;;;10.00;5.63;;;17.60;34.00;;;;;;10004603;28;20063;-71
2022/03/06 15:08:36;;;;;;;7.65;5.82;;;18.60;32.90;;;;;;9997891;28;20036;-70
2022/03/06 15:13:28;;;;;;;10.30;5.95;;;18.70;32.30;;;;;;9993135;28;20054;-72
2022/03/06 15:18:19;;;;;;;10.10;5.55;;;18.50;32.30;;;;;;9999965;28;20049;-71
2022/03/06 15:23:10;;;;;;;9.10;5.45;;;19.10;31.50;;;;;;9994772;28;20121;-70
2022/03/06 15:28:01;;;;;;;9.18;5.55;;;18.80;31.10;;;;;;10005608;28;20571;-70
2022/03/06 15:32:52;;;;;;;24.33;7.13;;;19.10;31.20;;;;;;10009714;28;20036;-71
2022/03/06 15:37:42;;;;;;;11.00;6.50;;;19.50;31.00;;;;;;9999107;28;20038;-69
2022/03/06 15:42:34;;;;;;;9.02;5.93;;;18.10;30.70;;;;;;10007966;28;20026;-71
2022/03/06 15:47:26;;;;;;;7.95;6.10;;;17.90;30.60;;;;;;10008518;28;20038;-71
2022/03/06 15:52:17;;;;;;;9.45;5.53;;;18.30;30.20;;;;;;10006658;28;20084;-71
2022/03/06 15:57:08;;;;;;;7.85;4.70;;;17.10;30.60;;;;;;10023955;28;20460;-72
2022/03/06 16:01:58;;;;;;;8.43;4.97;;;16.90;30.50;;;;;;10009176;28;20492;-71
2022/03/06 16:06:49;;;;;;;7.70;5.13;;;16.10;30.80;;;;;;10008627;28;20102;-72
2022/03/06 16:11:40;;;;;;;8.82;5.90;;;16.10;30.90;;;;;;10002994;28;20999;-71
2022/03/06 16:16:30;;;;;;;6.95;4.28;;;15.90;31.30;;;;;;9961185;28;20133;-71
2022/03/06 16:21:21;;;;;;;7.47;4.80;;;16.10;31.00;;;;;;9966347;28;20125;-71
2022/03/06 16:26:12;;;;;;;8.48;5.03;;;15.50;31.30;;;;;;9965593;28;20117;-70
2022/03/06 16:31:04;;;;;;;8.20;5.15;;;14.40;31.70;;;;;;9978281;28;20396;-69
2022/03/06 16:35:55;;;;;;;7.88;4.20;;;11.50;34.10;;;;;;9978627;28;20057;-70
2022/03/06 16:40:47;;;;;;;8.77;5.20;;;9.80;35.80;;;;;;9976970;28;20386;-69
2022/03/06 16:45:38;;;;;;;7.50;4.50;;;9.10;36.60;;;;;;9972857;28;20413;-70
2022/03/06 16:50:43;;;;;;;6.90;3.83;;;8.70;37.00;;;;;;9976576;28;20026;-70
2022/03/06 16:55:35;;;;;;;7.20;4.22;;;8.50;37.20;;;;;;9974366;28;20039;-71
2022/03/06 17:00:25;;;;;;;5.07;3.47;;;8.20;37.10;;;;;;9975098;28;20499;-72
2022/03/06 17:05:18;;;;;;;6.82;3.85;;;8.20;37.40;;;;;;9962084;28;20038;-68
2022/03/06 17:10:09;;;;;;;7.60;3.72;;;8.10;37.30;;;;;;9978323;28;20085;-65
2022/03/06 17:14:59;;;;;;;7.75;4.53;;;8.00;37.20;;;;;;9997446;28;20428;-64
2022/03/06 17:19:50;;;;;;;7.28;3.42;;;7.80;37.60;;;;;;10011611;28;20057;-64
2022/03/06 17:24:41;;;;;;;6.65;3.72;;;7.70;38.00;;;;;;10012956;28;20021;-65
2022/03/06 17:29:32;;;;;;;7.63;3.72;;;7.50;38.50;;;;;;10016550;28;20038;-64
2022/03/06 17:34:23;;;;;;;7.68;3.85;;;7.50;38.70;;;;;;10004039;28;20030;-63
2022/03/06 17:39:14;;;;;;;5.53;3.65;;;7.40;38.90;;;;;;10003608;28;20469;-65
2022/03/06 17:44:05;;;;;;;7.85;4.65;;;7.30;38.80;;;;;;10017319;28;20032;-64
2022/03/06 17:48:57;;;;;;;10.20;3.97;;;7.20;39.00;;;;;;10010724;28;20033;-64
2022/03/06 17:53:47;;;;;;;6.30;3.70;;;7.20;39.10;;;;;;10011053;28;20056;-64
2022/03/06 17:58:38;;;;;;;7.35;3.75;;;7.10;39.30;;;;;;10005384;28;20044;-65
2022/03/06 18:03:29;;;;;;;7.72;3.78;;;7.00;39.90;;;;;;10007869;28;20122;-65
2022/03/06 18:08:20;;;;;;;8.50;4.60;;;7.00;39.60;;;;;;10007521;28;20033;-64
2022/03/06 18:13:10;;;;;;;5.53;3.08;;;7.00;39.60;;;;;;10033339;28;20050;-66
2022/03/06 18:18:02;;;;;;;8.35;5.38;;;6.90;40.40;;;;;;9999255;28;20636;-74
2022/03/06 18:22:53;;;;;;;7.80;3.75;;;6.80;40.40;;;;;;10007017;28;20033;-67
2022/03/06 18:27:44;;;;;;;9.23;4.10;;;6.70;40.60;;;;;;10013930;28;20034;-68
2022/03/06 18:32:35;;;;;;;7.70;4.50;;;6.80;40.30;;;;;;10012476;28;20421;-64
2022/03/06 18:37:26;;;;;;;14.10;5.63;;;6.70;40.60;;;;;;10007769;28;20512;-67
2022/03/06 18:42:17;;;;;;;10.32;4.82;;;6.70;40.70;;;;;;10013948;28;20048;-66
2022/03/06 18:47:08;;;;;;;9.23;4.72;;;6.50;41.20;;;;;;10015716;28;20126;-66
2022/03/06 18:51:59;;;;;;;13.13;5.00;;;6.50;41.10;;;;;;10011698;28;20061;-65
2022/03/06 18:56:51;;;;;;;9.13;4.82;;;6.50;41.40;;;;;;10013664;28;20037;-64
2022/03/06 19:01:43;;;;;;;9.63;4.32;;;6.40;41.60;;;;;;10015882;28;20428;-63
2022/03/06 19:06:34;;;;;;;10.55;4.45;;;6.40;41.30;;;;;;10014698;28;20096;-64
2022/03/06 19:11:25;;;;;;;8.27;3.92;;;6.40;41.40;;;;;;10011879;28;20026;-66
2022/03/06 19:16:17;;;;;;;9.93;3.97;;;6.40;41.60;;;;;;10015022;28;20042;-66
2022/03/06 19:21:08;;;;;;;8.07;3.97;;;6.40;41.80;;;;;;10014758;28;20026;-67
2022/03/06 19:26:02;;;;;;;8.30;4.43;;;6.40;42.00;;;;;;10012136;28;20033;-64
2022/03/06 19:30:53;;;;;;;9.38;4.50;;;6.30;42.30;;;;;;10012738;28;20140;-65
2022/03/06 19:35:44;;;;;;;6.65;4.20;;;6.20;42.10;;;;;;10011433;28;20048;-66
2022/03/06 19:40:36;;;;;;;9.75;4.00;;;6.20;42.50;;;;;;10013163;28;20057;-66
2022/03/06 19:45:28;;;;;;;8.93;4.25;;;6.10;42.60;;;;;;10007421;28;20600;-66
2022/03/06 19:50:20;;;;;;;7.25;4.32;;;6.00;43.20;;;;;;10012642;28;20018;-64
2022/03/06 19:55:11;;;;;;;11.00;5.38;;;5.90;43.00;;;;;;10011259;28;20045;-66
2022/03/06 20:00:07;;;;;;;9.65;4.63;;;5.90;43.10;;;;;;10002526;28;20361;-67
2022/03/06 20:04:57;;;;;;;6.20;4.38;;;5.80;43.50;;;;;;10006632;28;20117;-66
2022/03/06 20:09:50;;;;;;;10.18;4.38;;;5.80;43.50;;;;;;10005680;28;20066;-66
2022/03/06 20:14:41;;;;;;;7.25;4.75;;;5.70;43.40;;;;;;10009024;28;20050;-66
2022/03/06 20:19:31;;;;;;;7.30;4.78;;;5.60;43.70;;;;;;10012137;28;20113;-65
2022/03/06 20:24:22;;;;;;;8.05;4.63;;;5.60;44.10;;;;;;10005955;28;20037;-64
2022/03/06 20:29:13;;;;;;;6.63;4.28;;;5.50;43.90;;;;;;10008258;28;20129;-63
2022/03/06 20:34:04;;;;;;;7.80;5.22;;;5.50;43.70;;;;;;10010099;28;20121;-61
2022/03/06 20:38:55;;;;;;;7.70;4.30;;;5.50;43.90;;;;;;10009742;28;20034;-65
2022/03/06 20:43:45;;;;;;;8.02;5.03;;;5.50;43.90;;;;;;10008833;28;20030;-61
2022/03/06 20:48:36;;;;;;;8.25;4.63;;;5.50;43.80;;;;;;10000751;28;20092;-61
2022/03/06 20:53:27;;;;;;;10.80;5.05;;;5.40;43.90;;;;;;10007628;28;20034;-63
2022/03/06 20:58:18;;;;;;;10.07;5.78;;;5.30;44.80;;;;;;10004754;28;20083;-62
2022/03/06 21:03:09;;;;;;;12.75;6.05;;;5.30;44.30;;;;;;10016708;28;20432;-63
2022/03/06 21:08:00;;;;;;;7.18;4.65;;;5.10;45.10;;;;;;10012058;28;20117;-62
2022/03/06 21:12:51;;;;;;;8.80;4.82;;;5.00;45.40;;;;;;10020410;28;20046;-65
2022/03/06 21:17:41;;;;;;;7.55;3.78;;;5.00;45.50;;;;;;10030198;28;20035;-65
2022/03/06 21:22:32;;;;;;;6.97;4.03;;;5.00;45.60;;;;;;10012043;28;20342;-64
2022/03/06 21:27:23;;;;;;;7.22;5.07;;;4.80;46.30;;;;;;10020530;28;21132;-64
2022/03/06 21:32:18;;;;;;;9.82;4.55;;;4.70;46.20;;;;;;10019417;28;20475;-63
2022/03/06 21:37:09;;;;;;;8.63;4.67;;;4.70;46.70;;;;;;10017079;28;20053;-64
2022/03/06 21:42:01;;;;;;;100.53;42.78;;;4.70;46.70;;;;;;10022348;28;20079;-67
2022/03/06 21:46:52;;;;;;;17.58;10.18;;;4.70;46.60;;;;;;10017119;28;20444;-71
2022/03/06 21:51:43;;;;;;;13.45;6.45;;;4.80;46.80;;;;;;10011290;28;20022;-75
2022/03/06 21:56:33;;;;;;;11.88;5.53;;;4.60;46.80;;;;;;9996194;28;20042;-72
2022/03/06 22:01:24;;;;;;;8.93;5.95;;;4.50;47.20;;;;;;10014903;28;20407;-63
2022/03/06 22:06:16;;;;;;;10.20;5.10;;;4.40;47.50;;;;;;10009025;28;20029;-62
2022/03/06 22:11:06;;;;;;;8.13;4.85;;;4.40;47.70;;;;;;10014185;28;20028;-67
2022/03/06 22:15:57;;;;;;;11.65;5.75;;;4.40;47.60;;;;;;10015088;28;20619;-74
2022/03/06 22:20:48;;;;;;;7.45;3.95;;;4.30;47.80;;;;;;10012309;28;20038;-64
2022/03/06 22:25:39;;;;;;;7.82;4.68;;;4.30;47.80;;;;;;10010312;28;20026;-73
2022/03/06 22:30:30;;;;;;;7.60;4.22;;;4.20;48.00;;;;;;10013428;28;20346;-66
2022/03/06 22:35:21;;;;;;;6.43;4.15;;;4.20;48.20;;;;;;10000419;28;20061;-68
2022/03/06 22:40:12;;;;;;;6.78;4.95;;;4.10;48.60;;;;;;10008286;28;20034;-68
2022/03/06 22:45:04;;;;;;;6.53;3.97;;;4.10;48.50;;;;;;10009807;28;20030;-61
2022/03/06 22:49:55;;;;;;;6.55;4.53;;;4.10;48.40;;;;;;10019416;28;20325;-73
2022/03/06 22:54:46;;;;;;;6.15;3.72;;;4.10;48.30;;;;;;10001950;28;20455;-70
2022/03/06 22:59:36;;;;;;;7.68;4.03;;;4.00;48.40;;;;;;10010570;28;20168;-63
2022/03/06 23:09:39;;;;;;;6.90;4.38;;;3.90;49.20;;;;;;10006945;28;20576;-67
2022/03/06 23:14:30;;;;;;;4.55;3.65;;;3.90;49.20;;;;;;10009881;28;20133;-73
2022/03/06 23:19:21;;;;;;;5.13;3.30;;;3.80;48.90;;;;;;10004579;28;20429;-68
2022/03/06 23:24:14;;;;;;;6.05;3.83;;;3.80;49.40;;;;;;10010716;28;20025;-65
2022/03/06 23:29:05;;;;;;;5.65;3.50;;;3.80;49.60;;;;;;10007209;28;20022;-63
2022/03/06 23:33:55;;;;;;;5.20;3.75;;;3.70;49.80;;;;;;10009079;28;20041;-63
2022/03/06 23:38:46;;;;;;;7.40;3.78;;;3.70;49.70;;;;;;10011069;28;20043;-68
2022/03/06 23:43:37;;;;;;;7.05;3.70;;;3.70;50.00;;;;;;9996967;28;20081;-67
2022/03/06 23:48:28;;;;;;;6.45;3.75;;;3.60;50.00;;;;;;9996795;28;20048;-63
2022/03/06 23:53:19;;;;;;;6.10;4.32;;;3.60;50.00;;;;;;10008265;28;20076;-63
2022/03/06 23:58:09;;;;;;;6.95;4.00;;;3.60;50.10;;;;;;10006061;28;20489;-66
